NKG weather

Nanjing Lukou Airport
Nanjing, Jiangsu Province, China

Public forecast

Using degrees Celsius for public forecast. Weather courtesy of forecast.io.

METAR (pilot weather report)

Retrieved 2019/07/21 10:00 UTC (34 minutes ago):

ZSNJ 211000Z 06003MPS CAVOK 33/24 Q1002 NOSIG

TAF (pilot weather forecast)

Retrieved 2019/07/21 06:03 UTC (5 hours ago):

TAF ZSNJ 210302Z 2106/2206 15003MPS 6000 SCT030 TX35/2106Z TN25/2121Z